createdAt,value
2022-10-15T00:02:36.079Z,1.40
2022-10-15T00:05:23.222Z,1.73
2022-10-15T00:08:11.351Z,1.90
2022-10-15T00:11:10.139Z,2.00
2022-10-15T00:13:59.539Z,1.93
2022-10-15T00:16:46.571Z,1.97
2022-10-15T00:19:33.597Z,2.00
2022-10-15T00:22:20.695Z,2.00
2022-10-15T00:25:08.518Z,1.90
2022-10-15T00:27:55.565Z,1.73
2022-10-15T00:30:42.495Z,1.67
2022-10-15T00:33:29.501Z,2.00
2022-10-15T00:36:19.735Z,1.93
2022-10-15T00:39:07.197Z,1.30
2022-10-15T00:41:54.128Z,1.70
2022-10-15T00:44:50.905Z,1.60
2022-10-15T00:47:40.944Z,1.60
2022-10-15T00:50:28.045Z,1.47
2022-10-15T00:53:15.395Z,1.33
2022-10-15T00:56:02.974Z,1.40
2022-10-15T00:58:52.930Z,1.30
2022-10-15T01:01:40.450Z,1.13
2022-10-15T01:04:28.408Z,1.00
2022-10-15T01:10:09.573Z,1.03
2022-10-15T01:13:08.292Z,0.90
2022-10-15T01:16:02.734Z,0.97
2022-10-15T01:18:56.602Z,1.00
2022-10-15T01:21:57.406Z,0.90
2022-10-15T01:24:59.359Z,0.77
2022-10-15T01:28:20.292Z,0.80
2022-10-15T01:31:16.306Z,0.80
2022-10-15T01:34:31.343Z,0.83
2022-10-15T01:37:18.650Z,0.80
2022-10-15T01:40:10.698Z,0.70
2022-10-15T01:43:03.729Z,0.70
2022-10-15T01:46:11.085Z,0.67
2022-10-15T01:49:05.250Z,0.70
2022-10-15T01:51:55.472Z,0.77
2022-10-15T01:54:44.790Z,0.60
2022-10-15T01:57:33.205Z,0.60
2022-10-15T02:00:20.335Z,0.70
2022-10-15T02:03:07.286Z,0.60
2022-10-15T02:06:05.824Z,0.50
2022-10-15T02:09:18.996Z,0.70
2022-10-15T02:12:17.337Z,0.60
2022-10-15T02:15:25.086Z,0.60
2022-10-15T02:18:24.495Z,0.57
2022-10-15T02:21:44.743Z,0.60
2022-10-15T02:24:54.568Z,0.50
2022-10-15T02:27:47.303Z,0.50
2022-10-15T02:30:36.939Z,0.50
2022-10-15T02:33:25.366Z,0.37
2022-10-15T02:36:13.014Z,0.40
2022-10-15T02:39:01.955Z,0.47
2022-10-15T02:41:49.373Z,0.63
2022-10-15T02:44:36.448Z,0.50
2022-10-15T02:50:15.374Z,0.30
2022-10-15T02:53:02.691Z,0.60
2022-10-15T02:55:49.636Z,0.40
2022-10-15T02:58:37.843Z,0.40
2022-10-15T03:01:25.294Z,0.50
2022-10-15T03:04:13.132Z,0.40
2022-10-15T03:07:00.096Z,0.50
2022-10-15T03:09:47.738Z,0.50
2022-10-15T03:12:35.763Z,0.50
2022-10-15T03:15:25.041Z,0.57
2022-10-15T03:18:12.067Z,0.47
2022-10-15T03:20:59.645Z,0.70
2022-10-15T03:23:46.764Z,0.50
2022-10-15T03:26:38.853Z,0.63
2022-10-15T03:29:26.173Z,0.40
2022-10-15T03:32:19.263Z,0.50
2022-10-15T03:35:06.661Z,0.60
2022-10-15T03:37:53.975Z,0.50
2022-10-15T03:40:41.128Z,0.50
2022-10-15T03:43:40.324Z,0.60
2022-10-15T03:46:29.849Z,0.50
2022-10-15T03:49:16.815Z,0.53
2022-10-15T03:52:03.791Z,0.80
2022-10-15T03:54:51.389Z,0.60
2022-10-15T03:57:42.078Z,0.60
2022-10-15T04:00:29.954Z,0.70
2022-10-15T04:03:20.332Z,0.60
2022-10-15T04:06:07.691Z,0.60
2022-10-15T04:08:55.718Z,0.63
2022-10-15T04:11:45.759Z,0.50
2022-10-15T04:14:33.596Z,0.60
2022-10-15T04:17:21.559Z,0.60
2022-10-15T04:20:10.548Z,0.60
2022-10-15T04:22:57.574Z,0.77
2022-10-15T04:25:46.089Z,0.70
2022-10-15T04:28:33.645Z,0.60
2022-10-15T04:31:21.424Z,0.50
2022-10-15T04:34:09.922Z,0.50
2022-10-15T04:36:57.206Z,0.50
2022-10-15T04:39:44.975Z,0.50
2022-10-15T04:42:34.570Z,0.60
2022-10-15T04:45:21.612Z,0.40
2022-10-15T04:48:08.766Z,0.40
2022-10-15T04:50:56.042Z,0.60
2022-10-15T04:53:43.733Z,0.50
2022-10-15T04:56:30.966Z,0.40
2022-10-15T04:59:17.970Z,0.40
2022-10-15T05:02:23.522Z,0.50
2022-10-15T05:05:15.813Z,0.30
2022-10-15T05:08:21.441Z,0.60
2022-10-15T05:11:25.943Z,0.43
2022-10-15T05:14:13.853Z,0.50
2022-10-15T05:17:00.833Z,0.40
2022-10-15T05:19:47.839Z,0.30
2022-10-15T05:22:38.983Z,0.47
2022-10-15T05:25:25.945Z,0.20
2022-10-15T05:28:12.972Z,0.30
2022-10-15T05:31:21.163Z,0.50
2022-10-15T05:34:13.051Z,0.30
2022-10-15T05:37:12.398Z,0.50
2022-10-15T05:40:00.871Z,0.30
2022-10-15T05:42:51.946Z,0.30
2022-10-15T05:45:38.919Z,0.10
2022-10-15T05:48:26.879Z,0.30
2022-10-15T05:51:15.373Z,0.20
2022-10-15T05:54:02.615Z,0.30
2022-10-15T05:56:49.557Z,0.30
2022-10-15T05:59:36.491Z,0.30
2022-10-15T06:02:23.862Z,0.30
2022-10-15T06:05:11.144Z,0.30
2022-10-15T06:07:58.104Z,0.20
2022-10-15T06:10:45.128Z,0.50
2022-10-15T06:13:32.096Z,0.30
2022-10-15T06:16:22.634Z,0.40
2022-10-15T06:19:11.074Z,0.30
2022-10-15T06:21:58.072Z,0.30
2022-10-15T06:24:44.994Z,0.20
2022-10-15T06:27:33.696Z,0.27
2022-10-15T06:30:20.949Z,0.30
2022-10-15T06:33:08.219Z,0.30
2022-10-15T06:35:55.767Z,0.30
2022-10-15T06:38:44.266Z,0.20
2022-10-15T06:41:31.603Z,0.40
2022-10-15T06:44:18.890Z,0.20
2022-10-15T06:47:06.070Z,0.40
2022-10-15T06:49:53.039Z,0.20
2022-10-15T06:52:40.009Z,0.30
2022-10-15T06:55:28.903Z,0.30
2022-10-15T06:58:15.862Z,0.30
2022-10-15T07:01:06.558Z,0.60
2022-10-15T07:03:53.521Z,0.70
2022-10-15T07:06:40.976Z,0.40
2022-10-15T07:09:28.147Z,0.40
2022-10-15T07:12:16.290Z,0.20
2022-10-15T07:15:03.354Z,0.40
2022-10-15T07:17:52.567Z,0.40
2022-10-15T07:20:39.546Z,0.30
2022-10-15T07:23:27.887Z,0.30
2022-10-15T07:26:15.600Z,0.30
2022-10-15T07:29:03.793Z,0.30
2022-10-15T07:31:51.013Z,0.40
2022-10-15T07:34:38.666Z,0.30
2022-10-15T07:37:25.907Z,0.30
2022-10-15T07:40:13.145Z,0.50
2022-10-15T07:43:02.087Z,0.33
2022-10-15T07:45:51.372Z,0.33
2022-10-15T07:48:38.448Z,0.30
2022-10-15T07:51:25.455Z,0.30
2022-10-15T07:54:12.409Z,0.30
2022-10-15T07:56:59.396Z,0.30
2022-10-15T07:59:46.402Z,0.30
2022-10-15T08:02:33.480Z,0.30
2022-10-15T08:05:20.458Z,0.30
2022-10-15T08:08:07.499Z,0.30
2022-10-15T08:10:54.491Z,0.30
2022-10-15T08:13:42.430Z,0.17
2022-10-15T08:16:29.787Z,0.20
2022-10-15T08:19:19.579Z,0.40
2022-10-15T08:22:09.134Z,0.30
2022-10-15T08:24:56.059Z,0.40
2022-10-15T08:27:42.991Z,0.27
2022-10-15T08:30:29.925Z,0.40
2022-10-15T08:33:17.037Z,0.30
2022-10-15T08:36:08.004Z,0.10
2022-10-15T08:38:55.007Z,0.20
2022-10-15T08:41:53.299Z,0.20
2022-10-15T08:44:46.494Z,0.30
2022-10-15T08:47:48.491Z,0.30
2022-10-15T08:50:40.852Z,0.30
2022-10-15T08:53:29.573Z,0.40
2022-10-15T08:56:39.505Z,0.30
2022-10-15T08:59:41.783Z,0.30
2022-10-15T09:02:54.183Z,0.40
2022-10-15T09:05:57.488Z,0.30
2022-10-15T09:09:06.265Z,0.30
2022-10-15T09:12:20.999Z,0.27
2022-10-15T09:15:15.207Z,0.33
2022-10-15T09:18:02.207Z,0.30
2022-10-15T09:20:54.286Z,0.40
2022-10-15T09:23:43.931Z,0.20
2022-10-15T09:27:07.451Z,0.40
2022-10-15T09:30:28.733Z,0.30
2022-10-15T09:33:41.943Z,0.40
2022-10-15T09:36:50.595Z,0.60
2022-10-15T09:39:47.460Z,0.40
2022-10-15T09:42:38.321Z,0.70
2022-10-15T09:45:25.371Z,0.40
2022-10-15T09:48:17.565Z,0.20
2022-10-15T09:51:19.014Z,0.30
2022-10-15T09:54:08.910Z,0.30
2022-10-15T09:56:57.397Z,0.30
2022-10-15T10:00:01.270Z,0.80
2022-10-15T10:03:14.584Z,0.50
2022-10-15T10:06:08.887Z,0.23
2022-10-15T10:09:06.195Z,0.20
2022-10-15T10:11:57.834Z,0.30
2022-10-15T10:14:53.032Z,0.50
2022-10-15T10:17:52.662Z,0.30
2022-10-15T10:20:53.075Z,0.30
2022-10-15T10:23:41.642Z,0.40
2022-10-15T10:26:35.723Z,0.17
2022-10-15T10:29:33.547Z,0.20
2022-10-15T10:32:28.183Z,0.33
2022-10-15T10:35:23.946Z,0.30
2022-10-15T10:38:23.475Z,0.30
2022-10-15T10:41:11.819Z,0.30
2022-10-15T10:43:58.745Z,0.37
2022-10-15T10:47:07.052Z,0.30
2022-10-15T10:49:56.320Z,0.27
2022-10-15T10:52:43.249Z,0.20
2022-10-15T10:55:37.965Z,0.40
2022-10-15T10:58:29.439Z,0.20
2022-10-15T11:01:17.721Z,0.30
2022-10-15T11:07:25.840Z,0.40
2022-10-15T11:10:28.829Z,0.20
2022-10-15T11:13:34.269Z,0.30
2022-10-15T11:16:35.805Z,0.30
2022-10-15T11:20:12.266Z,0.40
2022-10-15T11:23:50.607Z,0.33
2022-10-15T11:27:09.577Z,0.30
2022-10-15T11:30:10.562Z,0.40
2022-10-15T11:33:15.226Z,0.20
2022-10-15T11:36:27.159Z,0.40
2022-10-15T11:39:29.106Z,0.20
2022-10-15T11:42:45.434Z,0.30
2022-10-15T11:46:04.873Z,0.40
2022-10-15T11:49:21.321Z,0.30
2022-10-15T11:52:26.941Z,0.40
2022-10-15T11:55:20.244Z,0.20
2022-10-15T11:58:19.726Z,0.53
2022-10-15T12:01:15.198Z,0.13
2022-10-15T12:04:13.501Z,0.30
2022-10-15T12:07:04.271Z,0.30
2022-10-15T12:10:00.626Z,0.20
2022-10-15T12:13:20.998Z,0.20
2022-10-15T12:16:34.470Z,0.30
2022-10-15T12:19:30.146Z,0.20
2022-10-15T12:22:52.262Z,0.30
2022-10-15T12:25:42.152Z,0.20
2022-10-15T12:28:32.152Z,0.30
2022-10-15T12:31:20.746Z,0.17
2022-10-15T12:34:50.634Z,0.37
2022-10-15T12:37:37.873Z,0.17
2022-10-15T12:40:31.762Z,0.30
2022-10-15T12:43:21.351Z,0.30
2022-10-15T12:46:10.904Z,0.10
2022-10-15T12:48:58.156Z,0.30
2022-10-15T12:51:45.182Z,0.20
2022-10-15T12:54:42.372Z,0.30
2022-10-15T12:57:32.037Z,0.10
2022-10-15T13:00:33.367Z,0.10
2022-10-15T13:03:33.595Z,0.10
2022-10-15T13:06:20.565Z,0.10
2022-10-15T13:09:10.452Z,0.30
2022-10-15T13:12:00.230Z,0.40
2022-10-15T13:14:57.519Z,0.17
2022-10-15T13:17:44.605Z,0.30
2022-10-15T13:20:32.175Z,0.20
2022-10-15T13:23:32.553Z,0.30
2022-10-15T13:26:26.856Z,0.30
2022-10-15T13:29:25.311Z,0.27
2022-10-15T13:32:15.321Z,0.20
2022-10-15T13:35:09.460Z,0.30
2022-10-15T13:37:57.616Z,0.30
2022-10-15T13:40:48.315Z,0.30
2022-10-15T13:43:35.326Z,0.40
2022-10-15T13:46:23.682Z,0.23
2022-10-15T13:49:13.054Z,0.40
2022-10-15T13:52:00.042Z,0.40
2022-10-15T13:54:47.440Z,0.40
2022-10-15T13:57:35.165Z,0.30
2022-10-15T14:00:29.612Z,0.30
2022-10-15T14:03:18.493Z,0.50
2022-10-15T14:06:17.242Z,0.30
2022-10-15T14:09:43.075Z,0.30
2022-10-15T14:12:30.049Z,0.20
2022-10-15T14:15:55.755Z,0.53
2022-10-15T14:18:51.735Z,0.50
2022-10-15T14:21:44.539Z,0.40
2022-10-15T14:24:37.374Z,0.50
2022-10-15T14:27:27.554Z,0.70
2022-10-15T14:30:24.293Z,0.50
2022-10-15T14:33:40.969Z,0.40
2022-10-15T14:36:31.277Z,0.50
2022-10-15T14:39:32.883Z,0.50
2022-10-15T14:42:32.043Z,0.50
2022-10-15T14:45:21.800Z,0.30
2022-10-15T14:48:10.379Z,0.43
2022-10-15T14:51:03.439Z,0.57
2022-10-15T14:53:50.882Z,0.47
2022-10-15T14:56:37.971Z,0.60
2022-10-15T14:59:30.882Z,0.50
2022-10-15T15:02:19.506Z,0.60
2022-10-15T15:05:12.305Z,0.70
2022-10-15T15:08:04.299Z,0.60
2022-10-15T15:10:56.915Z,0.50
2022-10-15T15:13:45.673Z,0.47
2022-10-15T15:16:32.595Z,0.50
2022-10-15T15:19:19.792Z,0.50
2022-10-15T15:22:13.272Z,0.50
2022-10-15T15:25:06.505Z,0.73
2022-10-15T15:27:53.446Z,0.53
2022-10-15T15:30:43.611Z,0.60
2022-10-15T15:33:31.001Z,0.50
2022-10-15T15:36:20.780Z,0.60
2022-10-15T15:39:10.581Z,0.97
2022-10-15T15:41:57.601Z,0.60
2022-10-15T15:44:44.858Z,0.70
2022-10-15T15:47:32.538Z,0.70
2022-10-15T15:50:21.654Z,0.40
2022-10-15T15:53:12.142Z,0.60
2022-10-15T15:55:59.400Z,0.50
2022-10-15T15:58:48.366Z,0.60
2022-10-15T16:01:35.661Z,0.53
2022-10-15T16:04:23.512Z,0.60
2022-10-15T16:07:13.350Z,0.60
2022-10-15T16:10:01.091Z,0.53
2022-10-15T16:12:48.414Z,0.80
2022-10-15T16:15:35.790Z,0.67
2022-10-15T16:18:23.018Z,0.40
2022-10-15T16:21:09.995Z,0.40
2022-10-15T16:23:57.056Z,0.60
2022-10-15T16:26:44.517Z,0.70
2022-10-15T16:29:31.713Z,0.70
2022-10-15T16:32:19.316Z,0.90
2022-10-15T16:35:07.444Z,0.70
2022-10-15T16:37:56.430Z,0.70
2022-10-15T16:40:46.938Z,0.80
2022-10-15T16:43:34.995Z,0.70
2022-10-15T16:46:22.397Z,0.70
2022-10-15T16:49:09.429Z,0.70
2022-10-15T16:51:56.602Z,0.50
2022-10-15T16:54:43.627Z,0.50
2022-10-15T16:57:30.542Z,0.67
2022-10-15T17:00:17.583Z,0.73
2022-10-15T17:03:04.641Z,0.80
2022-10-15T17:05:59.594Z,0.70
2022-10-15T17:08:52.607Z,0.60
2022-10-15T17:11:42.360Z,0.63
2022-10-15T17:14:29.934Z,0.70
2022-10-15T17:17:17.813Z,0.70
2022-10-15T17:20:06.019Z,0.60
2022-10-15T17:22:53.071Z,1.13
2022-10-15T17:25:41.008Z,1.00
2022-10-15T17:28:28.031Z,0.90
2022-10-15T17:31:21.244Z,0.77
2022-10-15T17:34:11.438Z,0.90
2022-10-15T17:36:59.069Z,0.97
2022-10-15T17:39:46.159Z,0.70
2022-10-15T17:42:33.409Z,0.97
2022-10-15T17:45:21.164Z,1.10
2022-10-15T17:48:08.402Z,0.90
2022-10-15T17:50:57.480Z,1.00
2022-10-15T17:53:45.512Z,1.20
2022-10-15T17:56:35.073Z,0.70
2022-10-15T17:59:22.014Z,0.90
2022-10-15T18:02:10.195Z,0.97
2022-10-15T18:05:00.616Z,0.87
2022-10-15T18:07:47.670Z,1.00
2022-10-15T18:10:36.849Z,0.60
2022-10-15T18:13:23.816Z,0.80
2022-10-15T18:16:10.850Z,0.73
2022-10-15T18:18:57.885Z,0.80
2022-10-15T18:21:48.613Z,0.80
2022-10-15T18:24:37.182Z,0.90
2022-10-15T18:27:25.059Z,0.70
2022-10-15T18:30:12.379Z,0.87
2022-10-15T18:32:59.374Z,0.77
2022-10-15T18:35:46.345Z,0.90
2022-10-15T18:38:33.557Z,0.70
2022-10-15T18:41:23.799Z,0.80
2022-10-15T18:44:16.618Z,0.80
2022-10-15T18:47:03.610Z,0.73
2022-10-15T18:49:52.340Z,0.80
2022-10-15T18:52:40.486Z,0.90
2022-10-15T18:55:29.741Z,0.77
2022-10-15T18:58:17.302Z,1.13
2022-10-15T19:01:27.633Z,0.90
2022-10-15T19:04:17.487Z,0.73
2022-10-15T19:07:04.605Z,0.70
2022-10-15T19:09:51.591Z,0.93
2022-10-15T19:12:43.374Z,1.00
2022-10-15T19:15:30.426Z,0.90
2022-10-15T19:18:17.555Z,1.10
2022-10-15T19:21:05.930Z,1.03
2022-10-15T19:23:53.156Z,1.10
2022-10-15T19:26:40.239Z,1.30
2022-10-15T19:29:30.364Z,1.13
2022-10-15T19:32:21.362Z,1.20
2022-10-15T19:35:08.757Z,1.20
2022-10-15T19:37:55.699Z,1.10
2022-10-15T19:40:45.917Z,1.10
2022-10-15T19:43:36.129Z,1.13
2022-10-15T19:46:23.597Z,1.10
2022-10-15T19:49:12.578Z,1.20
2022-10-15T19:52:01.054Z,1.17
2022-10-15T19:54:48.003Z,0.93
2022-10-15T19:57:34.918Z,1.10
2022-10-15T20:00:21.999Z,1.20
2022-10-15T20:03:09.234Z,1.03
2022-10-15T20:05:57.066Z,1.00
2022-10-15T20:08:44.021Z,1.17
2022-10-15T20:11:31.747Z,0.87
2022-10-15T20:14:18.975Z,1.00
2022-10-15T20:17:06.312Z,1.00
2022-10-15T20:19:53.823Z,1.00
2022-10-15T20:22:42.006Z,1.03
2022-10-15T20:25:29.284Z,1.07
2022-10-15T20:28:18.212Z,1.00
2022-10-15T20:31:11.114Z,0.77
2022-10-15T20:34:00.705Z,1.00
2022-10-15T20:36:54.390Z,1.00
2022-10-15T20:39:42.012Z,1.10
2022-10-15T20:42:29.074Z,0.97
2022-10-15T20:45:16.605Z,0.83
2022-10-15T20:48:03.768Z,1.10
2022-10-15T20:50:53.249Z,0.90
2022-10-15T20:53:40.396Z,1.00
2022-10-15T20:56:27.762Z,0.93
2022-10-15T20:59:14.874Z,0.90
2022-10-15T21:02:02.192Z,1.10
2022-10-15T21:04:50.719Z,1.40
2022-10-15T21:07:37.716Z,0.90
2022-10-15T21:10:24.894Z,0.90
2022-10-15T21:13:11.872Z,1.20
2022-10-15T21:16:03.993Z,1.00
2022-10-15T21:18:50.923Z,0.90
2022-10-15T21:21:37.960Z,0.90
2022-10-15T21:24:27.957Z,1.20
2022-10-15T21:27:14.947Z,1.23
2022-10-15T21:30:02.011Z,1.20
2022-10-15T21:32:48.979Z,1.10
2022-10-15T21:35:35.945Z,1.20
2022-10-15T21:38:23.070Z,1.13
2022-10-15T21:41:10.167Z,1.40
2022-10-15T21:43:57.725Z,1.10
2022-10-15T21:46:44.760Z,1.50
2022-10-15T21:49:31.759Z,0.97
2022-10-15T21:52:18.873Z,1.00
2022-10-15T21:55:06.568Z,1.00
2022-10-15T21:57:53.641Z,1.10
2022-10-15T22:00:41.243Z,0.90
2022-10-15T22:03:28.181Z,1.13
2022-10-15T22:06:15.699Z,1.10
2022-10-15T22:09:04.245Z,1.17
2022-10-15T22:11:51.294Z,1.10
2022-10-15T22:14:38.274Z,1.00
2022-10-15T22:17:25.310Z,1.10
2022-10-15T22:20:12.273Z,1.00
2022-10-15T22:22:59.197Z,1.03
2022-10-15T22:25:46.657Z,1.37
2022-10-15T22:28:33.637Z,1.10
2022-10-15T22:31:21.171Z,1.00
2022-10-15T22:34:08.124Z,1.50
2022-10-15T22:36:55.214Z,1.30
2022-10-15T22:39:42.152Z,1.20
2022-10-15T22:42:29.381Z,1.23
2022-10-15T22:45:17.058Z,0.90
2022-10-15T22:48:04.032Z,0.97
2022-10-15T22:50:57.975Z,1.10
2022-10-15T22:53:45.286Z,0.87
2022-10-15T22:56:32.731Z,1.10
2022-10-15T22:59:20.340Z,0.93
2022-10-15T23:02:07.359Z,0.70
2022-10-15T23:04:54.296Z,1.00
2022-10-15T23:07:44.370Z,0.90
2022-10-15T23:10:31.320Z,1.00
2022-10-15T23:13:18.243Z,0.90
2022-10-15T23:16:17.371Z,1.03
2022-10-15T23:19:13.906Z,0.73
2022-10-15T23:22:03.279Z,0.90
2022-10-15T23:24:50.249Z,0.90
2022-10-15T23:27:37.459Z,0.80
2022-10-15T23:30:26.247Z,0.80
2022-10-15T23:33:13.255Z,1.00
2022-10-15T23:36:02.420Z,0.90
2022-10-15T23:38:51.430Z,0.90
2022-10-15T23:41:38.378Z,0.90
2022-10-15T23:44:26.621Z,1.20
2022-10-15T23:47:13.680Z,1.03
2022-10-15T23:50:00.597Z,1.00
2022-10-15T23:52:48.656Z,1.10
2022-10-15T23:55:40.021Z,1.40
2022-10-15T23:58:26.984Z,1.30
